Time;durP1;ratioP1;P1;durP2;ratioP2;P2;SDS_P1;SDS_P2;PMS_P1;PMS_P2;Temp;Humidity;BMP_temperature;BMP_pressure;BME280_temperature;BME280_humidity;BME280_pressure;Samples;Min_cycle;Max_cycle;Signal;HPM_P1;HPM_P2
2022/03/08 00:01:25;;;;;;;10.93;7.83;;;3.30;1.00;;;;;;5098903;28;20497;-53
2022/03/08 00:03:50;;;;;;;13.93;7.80;;;3.30;1.00;;;;;;5101224;28;20871;-54
2022/03/08 00:06:16;;;;;;;11.20;7.30;;;3.30;1.00;;;;;;5098114;27;20460;-53
2022/03/08 00:08:42;;;;;;;11.73;7.13;;;3.30;1.00;;;;;;5103023;28;20198;-54
2022/03/08 00:11:08;;;;;;;8.40;7.03;;;3.20;1.00;;;;;;5104635;27;20188;-54
2022/03/08 00:13:34;;;;;;;11.30;7.53;;;3.20;1.00;;;;;;5098518;28;20428;-54
2022/03/08 00:15:59;;;;;;;10.90;7.20;;;3.10;1.00;;;;;;5100553;28;20452;-53
2022/03/08 00:18:25;;;;;;;7.30;6.33;;;3.10;1.00;;;;;;5099994;28;20174;-56
2022/03/08 00:20:50;;;;;;;12.03;6.63;;;3.10;1.00;;;;;;5106384;28;20214;-54
2022/03/08 00:23:16;;;;;;;8.53;5.80;;;3.10;1.00;;;;;;5098883;28;20531;-55
2022/03/08 00:25:42;;;;;;;10.67;7.33;;;3.00;1.00;;;;;;5096108;28;20206;-53
2022/03/08 00:28:07;;;;;;;7.07;6.00;;;3.00;1.00;;;;;;5101323;28;20206;-54
2022/03/08 00:30:33;;;;;;;7.80;6.17;;;3.00;1.00;;;;;;5098763;27;20210;-56
2022/03/08 00:32:58;;;;;;;9.40;6.70;;;2.90;1.00;;;;;;5097764;28;20193;-54
2022/03/08 00:35:26;;;;;;;10.10;6.20;;;2.90;1.00;;;;;;5099517;28;20228;-53
2022/03/08 00:37:52;;;;;;;12.77;7.00;;;2.90;1.00;;;;;;5094045;28;20190;-55
2022/03/08 00:40:21;;;;;;;7.50;6.00;;;2.90;1.00;;;;;;5090386;28;20449;-53
2022/03/08 00:42:47;;;;;;;9.63;6.70;;;2.90;1.00;;;;;;5093708;28;20785;-57
2022/03/08 00:45:13;;;;;;;7.83;6.63;;;2.80;1.00;;;;;;5093009;28;20453;-54
2022/03/08 00:47:40;;;;;;;9.10;6.07;;;2.80;1.00;;;;;;5092695;28;21056;-55
2022/03/08 00:50:08;;;;;;;10.00;6.00;;;2.80;1.00;;;;;;5092605;28;20440;-52
2022/03/08 00:52:34;;;;;;;7.40;5.00;;;2.70;1.00;;;;;;5093507;28;20455;-54
2022/03/08 00:54:59;;;;;;;8.07;5.80;;;2.80;1.00;;;;;;5092857;28;20441;-54
2022/03/08 00:57:25;;;;;;;9.30;6.73;;;;;;;;;;5093632;28;20452;-52
2022/03/08 00:59:51;;;;;;;7.27;5.77;;;2.70;1.00;;;;;;5092649;28;20182;-52
2022/03/08 01:02:16;;;;;;;7.53;5.77;;;2.60;1.00;;;;;;5095673;28;20496;-55
2022/03/08 01:04:42;;;;;;;9.17;5.47;;;2.60;1.00;;;;;;5097005;28;20186;-56
2022/03/08 01:07:08;;;;;;;8.37;5.87;;;2.50;1.00;;;;;;5092882;28;20182;-56
2022/03/08 01:09:34;;;;;;;8.07;5.53;;;2.40;1.00;;;;;;5092589;28;20175;-55
2022/03/08 01:12:00;;;;;;;9.07;5.70;;;2.40;1.00;;;;;;5092332;28;20460;-55
2022/03/08 01:14:26;;;;;;;7.40;5.03;;;2.30;1.00;;;;;;5097397;28;20474;-54
2022/03/08 01:16:51;;;;;;;6.70;5.20;;;2.30;1.00;;;;;;5092232;28;20631;-56
2022/03/08 01:19:17;;;;;;;9.77;5.50;;;;;;;;;;5092266;28;20228;-55
2022/03/08 01:21:43;;;;;;;9.63;6.10;;;2.30;1.00;;;;;;5092604;28;20265;-54
2022/03/08 01:24:09;;;;;;;7.73;5.50;;;2.30;1.00;;;;;;5091968;28;20440;-55
2022/03/08 01:26:35;;;;;;;10.23;6.20;;;2.30;1.00;;;;;;5091133;28;20521;-53
2022/03/08 01:29:03;;;;;;;8.97;5.87;;;2.30;1.00;;;;;;5093551;28;20239;-54
2022/03/08 01:31:29;;;;;;;8.23;5.73;;;2.20;1.00;;;;;;5095321;28;20206;-54
2022/03/08 01:33:55;;;;;;;8.67;6.07;;;2.30;1.00;;;;;;5101439;27;20440;-55
2022/03/08 01:36:22;;;;;;;6.07;4.83;;;2.20;1.00;;;;;;5092282;28;20508;-53
2022/03/08 01:38:48;;;;;;;7.10;6.03;;;2.30;1.00;;;;;;5093036;28;20668;-55
2022/03/08 01:41:13;;;;;;;7.87;5.87;;;2.20;1.00;;;;;;5094654;28;20441;-55
2022/03/08 01:43:39;;;;;;;9.37;5.87;;;2.30;1.00;;;;;;5095194;28;20436;-54
2022/03/08 01:46:05;;;;;;;9.63;5.47;;;2.30;1.00;;;;;;5092241;28;20648;-52
2022/03/08 01:48:30;;;;;;;10.33;7.13;;;2.30;1.00;;;;;;5100275;28;20659;-55
2022/03/08 01:50:56;;;;;;;8.93;5.50;;;2.30;1.00;;;;;;5091595;28;20191;-52
2022/03/08 01:53:22;;;;;;;7.83;6.20;;;;;;;;;;5092986;28;20521;-55
2022/03/08 01:55:50;;;;;;;8.80;6.47;;;2.40;1.00;;;;;;5092427;28;20490;-53
2022/03/08 01:58:16;;;;;;;7.90;6.20;;;2.20;1.00;;;;;;5095118;28;20463;-52
2022/03/08 02:00:41;;;;;;;7.33;5.73;;;2.20;1.00;;;;;;5093261;28;20444;-55
2022/03/08 02:03:07;;;;;;;8.50;6.10;;;2.20;1.00;;;;;;5093828;28;20821;-53
2022/03/08 02:05:32;;;;;;;9.30;5.73;;;2.20;1.00;;;;;;5095008;28;20230;-57
2022/03/08 02:07:59;;;;;;;10.57;6.00;;;2.10;1.00;;;;;;5095476;28;20187;-55
2022/03/08 02:10:25;;;;;;;10.70;5.87;;;;;;;;;;5092591;28;20494;-54
2022/03/08 02:12:51;;;;;;;7.77;6.03;;;2.10;1.00;;;;;;5090765;28;20441;-54
2022/03/08 02:15:20;;;;;;;7.33;6.53;;;2.10;1.00;;;;;;5094672;28;20634;-55
2022/03/08 02:17:46;;;;;;;10.40;6.60;;;2.10;1.00;;;;;;5091125;28;20440;-54
2022/03/08 02:20:12;;;;;;;9.47;6.63;;;2.10;1.00;;;;;;5099017;28;20490;-54
2022/03/08 02:22:45;;;;;;;10.93;6.80;;;2.10;1.00;;;;;;5093969;28;20448;-54
2022/03/08 02:25:12;;;;;;;8.60;6.10;;;2.00;1.00;;;;;;5092230;28;20472;-56
2022/03/08 02:27:43;;;;;;;11.00;7.30;;;2.10;1.00;;;;;;5094085;28;20531;-52
2022/03/08 02:30:10;;;;;;;9.30;7.33;;;2.10;1.00;;;;;;5092994;28;20436;-53
2022/03/08 02:32:36;;;;;;;9.80;7.10;;;2.00;1.00;;;;;;5093805;28;20429;-56
2022/03/08 02:35:13;;;;;;;9.17;6.40;;;2.00;1.00;;;;;;5096095;28;20451;-55
2022/03/08 02:37:44;;;;;;;7.57;5.57;;;2.00;1.00;;;;;;5094411;28;20436;-54
2022/03/08 02:40:13;;;;;;;9.17;6.40;;;2.00;1.00;;;;;;5094687;28;20527;-52
2022/03/08 02:42:39;;;;;;;8.87;6.17;;;1.90;1.00;;;;;;5093800;28;21081;-55
2022/03/08 02:45:05;;;;;;;9.47;6.20;;;2.00;1.00;;;;;;5090817;28;20562;-54
2022/03/08 02:47:31;;;;;;;10.47;6.70;;;2.10;1.00;;;;;;5096830;28;20444;-55
2022/03/08 02:49:57;;;;;;;14.30;5.60;;;2.00;1.00;;;;;;5091278;28;20436;-55
2022/03/08 02:52:22;;;;;;;10.20;6.13;;;2.00;1.00;;;;;;5089346;28;20190;-52
2022/03/08 02:54:48;;;;;;;9.00;5.77;;;2.00;1.00;;;;;;5093943;28;20273;-53
2022/03/08 02:57:13;;;;;;;9.03;6.50;;;2.00;1.00;;;;;;5093946;28;20186;-53
2022/03/08 02:59:39;;;;;;;9.53;6.40;;;1.90;1.00;;;;;;5095001;28;20194;-52
2022/03/08 03:02:05;;;;;;;8.97;6.13;;;1.90;1.00;;;;;;5090509;28;20194;-54
2022/03/08 03:04:30;;;;;;;9.50;6.27;;;1.80;1.00;;;;;;5090030;28;20179;-55
2022/03/08 03:06:56;;;;;;;8.47;5.80;;;1.70;1.00;;;;;;5090795;28;20309;-55
2022/03/08 03:09:23;;;;;;;12.07;6.60;;;;;;;;;;5089456;28;20171;-53
2022/03/08 03:11:49;;;;;;;12.83;7.10;;;1.70;1.00;;;;;;5090668;28;20227;-54
2022/03/08 03:14:14;;;;;;;9.37;6.00;;;1.80;1.00;;;;;;5092357;28;20432;-56
2022/03/08 03:16:40;;;;;;;9.60;6.40;;;1.80;1.00;;;;;;5090977;28;20179;-54
2022/03/08 03:19:05;;;;;;;8.63;5.80;;;1.70;1.00;;;;;;5090525;28;20183;-54
2022/03/08 03:21:31;;;;;;;8.47;6.57;;;1.80;1.00;;;;;;5089893;28;20202;-55
2022/03/08 03:23:56;;;;;;;8.50;6.63;;;1.70;1.00;;;;;;5100944;28;20647;-55
2022/03/08 03:26:23;;;;;;;8.23;6.20;;;1.70;1.00;;;;;;5090486;28;20289;-54
2022/03/08 03:28:48;;;;;;;7.87;5.90;;;1.70;1.00;;;;;;5091628;28;20189;-52
2022/03/08 03:31:14;;;;;;;7.87;5.80;;;1.60;1.00;;;;;;5092600;28;20467;-54
2022/03/08 03:33:39;;;;;;;9.63;6.70;;;1.60;1.00;;;;;;5091464;28;20202;-54
2022/03/08 03:36:05;;;;;;;8.70;6.10;;;1.60;1.00;;;;;;5095443;28;20214;-58
2022/03/08 03:38:31;;;;;;;6.67;5.70;;;;;;;;;;5092187;28;20674;-53
2022/03/08 03:40:56;;;;;;;9.63;6.10;;;1.60;1.00;;;;;;5090888;28;20674;-55
2022/03/08 03:43:22;;;;;;;10.10;6.80;;;1.50;1.00;;;;;;5089911;28;20926;-55
2022/03/08 03:45:48;;;;;;;9.07;7.17;;;1.50;1.00;;;;;;5093453;28;20202;-53
2022/03/08 03:48:13;;;;;;;11.13;6.30;;;1.40;1.00;;;;;;5090912;28;20178;-52
2022/03/08 03:50:39;;;;;;;7.23;5.40;;;1.40;1.00;;;;;;5094709;28;20223;-54
2022/03/08 03:53:05;;;;;;;7.57;5.70;;;;;;;;;;5096863;28;20175;-52
2022/03/08 03:55:31;;;;;;;10.43;7.00;;;1.40;1.00;;;;;;5088219;28;20468;-55
2022/03/08 03:57:56;;;;;;;7.70;5.77;;;1.40;1.00;;;;;;5091503;28;20452;-51
2022/03/08 04:00:22;;;;;;;9.07;6.53;;;;;;;;;;5091087;28;20252;-53
2022/03/08 04:02:48;;;;;;;10.73;6.67;;;1.30;1.00;;;;;;5095580;28;20182;-52
2022/03/08 04:05:19;;;;;;;6.57;5.90;;;1.30;1.00;;;;;;5091612;28;20449;-52
2022/03/08 04:07:45;;;;;;;7.47;5.87;;;;;;;;;;5090186;28;20183;-52
2022/03/08 04:10:14;;;;;;;8.00;6.00;;;1.20;1.00;;;;;;5090003;28;20791;-55
2022/03/08 04:12:40;;;;;;;8.30;5.90;;;1.20;1.00;;;;;;5093416;28;20441;-56
2022/03/08 04:15:06;;;;;;;8.60;6.07;;;1.30;1.00;;;;;;5099516;28;20448;-55
2022/03/08 04:17:32;;;;;;;10.50;5.47;;;1.20;1.00;;;;;;5093289;28;21051;-53
2022/03/08 04:19:57;;;;;;;7.83;5.20;;;1.10;1.00;;;;;;5095733;28;20213;-53
2022/03/08 04:22:23;;;;;;;11.20;6.17;;;1.20;1.00;;;;;;5093893;28;20190;-54
2022/03/08 04:24:49;;;;;;;12.23;7.10;;;1.20;1.00;;;;;;5093417;28;20182;-55
2022/03/08 04:27:14;;;;;;;14.00;6.47;;;1.20;1.00;;;;;;5096523;28;20641;-53
2022/03/08 04:29:40;;;;;;;10.47;6.37;;;;;;;;;;5096523;28;20183;-53
2022/03/08 04:32:06;;;;;;;9.07;5.67;;;1.20;1.00;;;;;;5097219;28;20301;-54
2022/03/08 04:34:32;;;;;;;9.10;6.30;;;;;;;;;;5110957;28;20597;-57
2022/03/08 04:36:58;;;;;;;10.47;6.37;;;1.10;1.00;;;;;;5103965;28;20483;-54
2022/03/08 04:39:23;;;;;;;9.33;6.67;;;1.20;1.00;;;;;;5088222;28;20453;-55
2022/03/08 04:41:49;;;;;;;6.93;5.60;;;;;;;;;;5086848;28;20197;-53
2022/03/08 04:44:15;;;;;;;8.73;6.20;;;1.20;1.00;;;;;;5087289;28;20187;-53
2022/03/08 04:46:41;;;;;;;8.50;5.87;;;1.10;1.00;;;;;;5089863;28;20468;-54
2022/03/08 04:49:07;;;;;;;11.13;6.00;;;1.00;1.00;;;;;;5092514;28;20183;-55
2022/03/08 04:51:33;;;;;;;8.30;6.03;;;;;;;;;;5102742;28;20247;-53
2022/03/08 04:53:58;;;;;;;9.30;7.20;;;1.10;1.00;;;;;;5095099;28;20175;-54
2022/03/08 04:56:24;;;;;;;13.07;6.87;;;1.20;1.00;;;;;;5092241;28;20450;-55
2022/03/08 04:58:50;;;;;;;7.63;6.17;;;1.20;1.00;;;;;;5097854;28;20214;-54
2022/03/08 05:01:16;;;;;;;8.60;6.87;;;1.20;1.00;;;;;;5100734;28;21889;-55
2022/03/08 05:03:42;;;;;;;7.83;6.27;;;1.20;1.00;;;;;;5093671;28;20844;-51
2022/03/08 05:06:08;;;;;;;8.50;6.10;;;;;;;;;;5092214;28;20557;-53
2022/03/08 05:08:33;;;;;;;8.93;6.60;;;1.00;1.00;;;;;;5092915;28;20190;-55
2022/03/08 05:11:01;;;;;;;11.23;7.17;;;1.10;1.00;;;;;;5091974;28;20913;-55
2022/03/08 05:13:29;;;;;;;10.10;6.63;;;1.10;1.00;;;;;;5090154;28;20191;-54
2022/03/08 05:15:55;;;;;;;10.53;6.13;;;1.10;1.00;;;;;;5090924;28;20526;-52
2022/03/08 05:18:21;;;;;;;7.80;5.90;;;1.00;1.00;;;;;;5092056;28;20942;-54
2022/03/08 05:20:46;;;;;;;8.53;5.80;;;1.00;1.00;;;;;;5092178;28;20175;-54
2022/03/08 05:23:12;;;;;;;9.83;6.13;;;1.00;1.00;;;;;;5093184;28;20191;-54
2022/03/08 05:25:38;;;;;;;11.00;6.90;;;1.00;1.00;;;;;;5092311;28;20214;-53
2022/03/08 05:28:04;;;;;;;9.57;5.90;;;1.00;1.00;;;;;;5092461;28;20806;-55
2022/03/08 05:30:30;;;;;;;8.30;6.40;;;;;;;;;;5101174;28;20965;-53
2022/03/08 05:32:56;;;;;;;7.80;6.00;;;0.90;1.00;;;;;;5097387;28;20441;-56
2022/03/08 05:35:21;;;;;;;12.23;7.33;;;0.90;1.00;;;;;;5101647;28;20492;-53
2022/03/08 05:37:47;;;;;;;8.17;5.80;;;0.90;1.00;;;;;;5095461;28;20611;-55
2022/03/08 05:40:13;;;;;;;10.00;7.40;;;;;;;;;;5091417;28;20190;-55
2022/03/08 05:42:39;;;;;;;11.30;6.40;;;0.80;1.00;;;;;;5099536;28;20217;-55
2022/03/08 05:45:07;;;;;;;11.23;6.23;;;0.90;1.00;;;;;;5096446;28;20913;-55
2022/03/08 05:47:33;;;;;;;7.10;5.80;;;1.00;1.00;;;;;;5094712;28;20443;-53
2022/03/08 05:49:59;;;;;;;11.40;7.10;;;1.00;1.00;;;;;;5099286;28;21065;-54
2022/03/08 05:52:25;;;;;;;9.57;6.10;;;;;;;;;;5095124;28;20448;-54
2022/03/08 05:54:51;;;;;;;12.17;6.90;;;1.00;1.00;;;;;;5094086;28;20437;-55
2022/03/08 05:57:16;;;;;;;9.93;6.03;;;1.00;1.00;;;;;;5093667;28;20766;-55
2022/03/08 05:59:44;;;;;;;8.60;6.33;;;1.00;1.00;;;;;;5096314;28;20577;-56
2022/03/08 06:02:09;;;;;;;10.40;7.67;;;1.00;1.00;;;;;;5094341;28;20213;-53
2022/03/08 06:04:35;;;;;;;10.57;7.27;;;1.00;1.00;;;;;;5093417;28;20468;-54
2022/03/08 06:07:01;;;;;;;11.20;6.40;;;;;;;;;;5095473;28;20217;-53
2022/03/08 06:09:26;;;;;;;9.83;7.03;;;1.10;1.00;;;;;;5091450;28;20578;-52
2022/03/08 06:11:52;;;;;;;15.60;7.93;;;1.10;1.00;;;;;;5099246;28;20968;-55
2022/03/08 06:14:17;;;;;;;11.43;7.27;;;1.20;1.00;;;;;;5094834;28;20170;-55
2022/03/08 06:16:43;;;;;;;11.10;6.50;;;1.20;1.00;;;;;;5098794;28;20186;-53
2022/03/08 06:19:09;;;;;;;8.47;6.27;;;1.20;1.00;;;;;;5096281;28;20231;-53
2022/03/08 06:21:35;;;;;;;10.70;6.43;;;;;;;;;;5094414;28;20225;-54
2022/03/08 06:24:00;;;;;;;10.20;7.13;;;1.30;1.00;;;;;;5098734;28;20444;-55
2022/03/08 06:26:26;;;;;;;10.70;6.73;;;1.40;1.00;;;;;;5102927;28;20466;-54
2022/03/08 06:28:52;;;;;;;10.93;7.20;;;1.40;1.00;;;;;;5091253;28;20178;-53
2022/03/08 06:31:18;;;;;;;10.50;6.93;;;1.50;1.00;;;;;;5090853;28;20464;-53
2022/03/08 06:33:43;;;;;;;10.00;6.97;;;1.50;1.00;;;;;;5093027;28;20182;-54
2022/03/08 06:36:09;;;;;;;9.10;7.27;;;1.50;1.00;;;;;;5104269;28;20178;-55
2022/03/08 06:38:35;;;;;;;11.70;6.87;;;1.50;1.00;;;;;;5090829;28;20205;-55
2022/03/08 06:41:00;;;;;;;12.47;7.80;;;1.60;1.00;;;;;;5090658;28;20202;-54
2022/03/08 06:43:26;;;;;;;17.63;8.67;;;1.60;1.00;;;;;;5091312;28;20444;-54
2022/03/08 06:45:51;;;;;;;12.87;7.83;;;1.70;1.00;;;;;;5095076;28;20647;-56
2022/03/08 06:48:17;;;;;;;10.37;7.30;;;1.90;1.00;;;;;;5093784;28;20174;-54
2022/03/08 06:50:42;;;;;;;12.27;8.40;;;1.90;1.00;;;;;;5097629;28;20197;-55
2022/03/08 06:53:08;;;;;;;11.33;8.17;;;1.90;1.00;;;;;;5108834;28;20565;-54
2022/03/08 06:55:35;;;;;;;12.43;7.83;;;;;;;;;;5096748;28;20246;-54
2022/03/08 06:58:02;;;;;;;12.67;8.57;;;2.10;1.00;;;;;;5095578;28;20194;-55
2022/03/08 07:00:27;;;;;;;12.43;8.93;;;2.10;1.00;;;;;;5105047;28;20436;-53
2022/03/08 07:02:53;;;;;;;11.30;7.70;;;2.30;1.00;;;;;;5096385;28;20938;-54
2022/03/08 07:05:18;;;;;;;9.10;7.60;;;2.40;1.00;;;;;;5102248;28;20586;-53
2022/03/08 07:07:44;;;;;;;10.63;8.00;;;;;;;;;;5104269;28;20193;-56
2022/03/08 07:10:10;;;;;;;12.50;8.10;;;;;;;;;;5102120;28;20187;-55
2022/03/08 07:12:36;;;;;;;12.23;8.70;;;2.60;1.00;;;;;;5092201;28;20437;-56
2022/03/08 07:15:03;;;;;;;9.37;7.90;;;2.80;1.00;;;;;;5093440;28;20459;-54
2022/03/08 07:17:28;;;;;;;8.80;7.70;;;2.90;1.00;;;;;;5090856;28;20198;-54
2022/03/08 07:19:54;;;;;;;10.73;8.50;;;3.00;1.00;;;;;;5090546;28;20441;-55
2022/03/08 07:22:19;;;;;;;14.70;7.90;;;3.30;1.00;;;;;;5090041;28;20231;-54
2022/03/08 07:24:45;;;;;;;16.10;8.43;;;;;;;;;;5100952;28;20640;-56
2022/03/08 07:27:11;;;;;;;14.33;8.60;;;4.10;1.00;;;;;;5097922;28;20248;-53
2022/03/08 07:29:36;;;;;;;13.53;9.30;;;4.30;1.00;;;;;;5100870;28;21109;-55
2022/03/08 07:32:03;;;;;;;13.70;9.27;;;4.30;1.00;;;;;;5088247;28;20243;-56
2022/03/08 07:34:28;;;;;;;11.27;8.83;;;4.20;1.00;;;;;;5090152;28;20597;-55
2022/03/08 07:36:54;;;;;;;14.93;8.60;;;4.20;1.00;;;;;;5090683;28;20448;-53
2022/03/08 07:39:19;;;;;;;13.30;7.77;;;3.90;1.00;;;;;;5098449;28;20178;-53
2022/03/08 07:41:45;;;;;;;13.17;9.80;;;3.90;1.00;;;;;;5091141;28;20175;-54
2022/03/08 07:44:11;;;;;;;11.60;8.30;;;4.30;1.00;;;;;;5094471;28;20182;-55
2022/03/08 07:46:36;;;;;;;10.80;7.83;;;4.80;1.00;;;;;;5097535;28;20206;-54
2022/03/08 07:49:02;;;;;;;11.73;8.10;;;;;;;;;;5093125;28;20178;-54
2022/03/08 07:51:28;;;;;;;13.20;9.30;;;5.50;1.00;;;;;;5098054;28;20183;-55
2022/03/08 07:53:54;;;;;;;12.27;8.73;;;5.50;1.00;;;;;;5093084;28;20460;-54
2022/03/08 07:56:20;;;;;;;15.20;9.27;;;5.40;1.00;;;;;;5103353;28;20197;-57
2022/03/08 07:58:46;;;;;;;12.80;8.93;;;5.40;1.00;;;;;;5098145;28;20190;-54
2022/03/08 08:01:12;;;;;;;10.63;8.77;;;5.40;1.00;;;;;;5092226;28;20190;-55
2022/03/08 08:03:38;;;;;;;13.33;8.67;;;5.50;1.00;;;;;;5101834;28;20451;-54
2022/03/08 08:06:04;;;;;;;12.57;9.83;;;5.60;1.00;;;;;;5104545;28;20471;-54
2022/03/08 08:08:29;;;;;;;14.90;10.40;;;5.60;1.00;;;;;;5102488;28;20695;-56
2022/03/08 08:10:55;;;;;;;14.40;8.67;;;5.70;1.00;;;;;;5094950;28;20214;-54
2022/03/08 08:13:21;;;;;;;11.47;8.57;;;;;;;;;;5095837;28;20182;-54
2022/03/08 08:15:47;;;;;;;13.53;7.90;;;5.70;1.00;;;;;;5102090;28;20183;-55
2022/03/08 08:18:12;;;;;;;12.00;7.97;;;5.90;1.00;;;;;;5104108;28;20439;-56
2022/03/08 08:20:39;;;;;;;18.30;8.30;;;5.70;1.00;;;;;;5101477;28;20189;-55
2022/03/08 08:23:04;;;;;;;11.90;8.10;;;5.50;1.00;;;;;;5099720;28;20183;-55
2022/03/08 08:25:30;;;;;;;12.87;8.83;;;5.70;1.00;;;;;;5101166;28;20890;-54
2022/03/08 08:27:56;;;;;;;9.67;7.47;;;5.80;1.00;;;;;;5105750;28;20307;-55
2022/03/08 08:30:22;;;;;;;15.67;7.17;;;;;;;;;;5096821;28;20308;-57
2022/03/08 08:32:50;;;;;;;9.83;7.67;;;6.10;1.00;;;;;;5097765;28;20642;-55
2022/03/08 08:35:17;;;;;;;8.23;7.37;;;6.10;1.00;;;;;;5107969;28;20734;-55
2022/03/08 08:37:43;;;;;;;10.93;8.50;;;6.10;1.00;;;;;;5104323;28;20448;-55
2022/03/08 08:40:09;;;;;;;10.80;8.13;;;6.20;1.00;;;;;;5095485;28;20467;-55
2022/03/08 08:42:34;;;;;;;16.00;7.73;;;6.40;1.00;;;;;;5103284;28;20446;-55
2022/03/08 08:45:01;;;;;;;10.93;7.63;;;;;;;;;;5106390;28;20448;-56
2022/03/08 08:47:26;;;;;;;11.13;8.00;;;6.70;1.00;;;;;;5103576;28;20178;-55
2022/03/08 08:49:52;;;;;;;10.37;7.27;;;6.80;1.00;;;;;;5102480;28;20441;-53
2022/03/08 08:52:17;;;;;;;8.00;7.03;;;6.80;1.00;;;;;;5093592;28;20607;-53
2022/03/08 08:54:46;;;;;;;9.23;8.33;;;6.70;1.00;;;;;;5098967;28;20237;-53
2022/03/08 08:57:11;;;;;;;10.87;8.70;;;6.80;1.00;;;;;;5102564;28;20535;-53
2022/03/08 08:59:37;;;;;;;12.47;9.50;;;6.90;1.00;;;;;;5098281;28;20436;-55
2022/03/08 09:02:03;;;;;;;11.50;7.27;;;6.90;1.00;;;;;;5099628;28;20181;-54
2022/03/08 09:04:28;;;;;;;11.77;8.70;;;6.70;1.00;;;;;;5107111;28;20273;-55
2022/03/08 09:06:54;;;;;;;10.83;9.00;;;6.60;1.00;;;;;;5093094;28;20206;-55
2022/03/08 09:09:19;;;;;;;13.80;9.23;;;6.80;1.00;;;;;;5102942;28;20179;-54
2022/03/08 09:11:45;;;;;;;13.73;9.07;;;;;;;;;;5100520;28;20223;-54
2022/03/08 09:14:11;;;;;;;13.60;9.03;;;7.10;1.00;;;;;;5103238;28;20174;-53
2022/03/08 09:16:37;;;;;;;8.30;7.37;;;;;;;;;;5109310;28;20819;-54
2022/03/08 09:19:03;;;;;;;12.30;9.03;;;;;;;;;;5112908;28;20282;-57
2022/03/08 09:21:29;;;;;;;9.50;8.50;;;7.60;1.00;;;;;;5107385;28;21031;-54
2022/03/08 09:23:54;;;;;;;13.20;8.77;;;7.70;1.00;;;;;;5101373;28;20445;-54
2022/03/08 09:26:20;;;;;;;13.50;8.00;;;7.70;1.00;;;;;;5095385;28;20215;-55
2022/03/08 09:28:45;;;;;;;8.20;7.37;;;7.80;1.00;;;;;;5095587;28;20186;-57
2022/03/08 09:31:12;;;;;;;13.07;8.93;;;7.90;1.00;;;;;;5109943;28;20242;-54
2022/03/08 09:33:38;;;;;;;8.53;7.57;;;8.00;1.00;;;;;;5104945;28;20221;-55
2022/03/08 09:36:06;;;;;;;11.00;7.87;;;8.10;1.00;;;;;;5100483;28;20467;-57
2022/03/08 09:38:32;;;;;;;12.90;8.47;;;8.30;1.00;;;;;;5094233;28;20502;-55
2022/03/08 09:40:58;;;;;;;11.00;7.60;;;8.40;1.00;;;;;;5091331;28;20486;-55
2022/03/08 09:43:24;;;;;;;12.17;8.00;;;;;;;;;;5100183;28;20259;-54
2022/03/08 09:45:50;;;;;;;10.70;7.40;;;8.50;1.00;;;;;;5095250;28;20529;-54
2022/03/08 09:48:16;;;;;;;13.90;8.50;;;8.60;1.00;;;;;;5099804;28;20439;-54
2022/03/08 09:50:42;;;;;;;9.57;7.83;;;8.70;1.00;;;;;;5112659;28;20547;-54
2022/03/08 09:53:11;;;;;;;9.00;6.87;;;8.80;1.00;;;;;;5104352;28;20436;-55
2022/03/08 09:55:37;;;;;;;8.37;6.97;;;9.00;1.00;;;;;;5100736;28;20668;-54
2022/03/08 09:58:04;;;;;;;8.70;7.80;;;9.00;1.00;;;;;;5096169;28;20440;-55
2022/03/08 10:00:32;;;;;;;11.27;8.13;;;9.20;1.00;;;;;;5103511;28;20182;-55
2022/03/08 10:02:59;;;;;;;11.20;7.90;;;9.20;1.00;;;;;;5096687;28;20465;-55
2022/03/08 10:05:28;;;;;;;10.90;6.90;;;9.20;1.00;;;;;;5094514;28;20464;-54
2022/03/08 10:08:10;;;;;;;12.47;8.23;;;9.40;1.00;;;;;;5102253;28;20428;-54
2022/03/08 10:10:58;;;;;;;9.57;6.83;;;9.60;1.00;;;;;;5090209;28;20523;-56
2022/03/08 10:13:26;;;;;;;9.50;7.83;;;9.80;1.00;;;;;;5091454;28;20802;-55
2022/03/08 10:16:08;;;;;;;12.80;7.27;;;9.70;1.00;;;;;;5090692;28;20440;-55
2022/03/08 10:18:36;;;;;;;9.53;6.87;;;9.70;1.00;;;;;;5100830;28;20487;-54
2022/03/08 10:21:04;;;;;;;7.33;6.40;;;9.90;1.00;;;;;;5094928;28;20440;-57
2022/03/08 10:23:40;;;;;;;9.80;6.47;;;9.90;1.00;;;;;;5094636;28;20445;-57
2022/03/08 10:26:06;;;;;;;8.13;6.40;;;;;;;;;;5087092;28;20555;-53
2022/03/08 10:28:43;;;;;;;7.27;6.47;;;9.80;1.00;;;;;;5091141;28;20944;-56
2022/03/08 10:31:13;;;;;;;8.40;7.03;;;9.90;1.00;;;;;;5099488;28;20945;-56
2022/03/08 10:33:39;;;;;;;7.97;6.90;;;10.10;1.00;;;;;;5094094;28;20444;-55
2022/03/08 10:36:15;;;;;;;10.63;6.83;;;10.50;1.00;;;;;;5090877;28;20809;-54
2022/03/08 10:39:12;;;;;;;8.50;6.93;;;10.50;1.00;;;;;;5099111;28;20265;-54
2022/03/08 10:41:49;;;;;;;8.97;7.23;;;10.60;1.00;;;;;;5092728;28;20448;-56
2022/03/08 10:44:16;;;;;;;7.90;7.10;;;10.50;1.00;;;;;;5095283;28;20451;-58
2022/03/08 10:46:42;;;;;;;8.63;6.83;;;10.50;1.00;;;;;;5090586;28;20460;-57
2022/03/08 10:49:13;;;;;;;13.30;6.73;;;10.50;1.00;;;;;;5090543;28;20501;-57
2022/03/08 10:51:39;;;;;;;7.80;6.80;;;10.60;1.00;;;;;;5090538;28;20415;-57
2022/03/08 10:54:15;;;;;;;9.03;6.23;;;10.70;1.00;;;;;;5090505;28;20961;-57
2022/03/08 10:56:46;;;;;;;7.23;5.77;;;10.90;1.00;;;;;;5089586;28;20486;-58
2022/03/08 10:59:14;;;;;;;6.70;6.00;;;11.20;1.00;;;;;;5090553;28;20791;-58
2022/03/08 11:01:40;;;;;;;5.77;5.10;;;11.30;1.00;;;;;;5090163;28;20444;-57
2022/03/08 11:04:17;;;;;;;9.30;6.40;;;11.40;1.00;;;;;;5089556;28;20464;-57
2022/03/08 11:06:43;;;;;;;7.70;5.70;;;11.20;1.00;;;;;;5090456;28;20810;-59
2022/03/08 11:09:09;;;;;;;4.73;4.27;;;11.00;1.00;;;;;;5090699;28;20415;-57
2022/03/08 11:11:36;;;;;;;6.00;4.93;;;11.10;1.00;;;;;;5090929;28;20415;-58
2022/03/08 11:14:02;;;;;;;6.97;4.90;;;11.50;1.00;;;;;;5092764;28;20501;-57
2022/03/08 11:16:30;;;;;;;7.53;4.67;;;11.50;1.00;;;;;;5090162;28;20911;-58
2022/03/08 11:18:56;;;;;;;6.70;4.63;;;11.00;1.00;;;;;;5090144;28;20190;-58
2022/03/08 11:21:23;;;;;;;7.03;5.30;;;11.10;1.00;;;;;;5090275;28;20455;-57
2022/03/08 11:23:51;;;;;;;7.97;5.70;;;11.20;1.00;;;;;;5091504;28;20312;-57
2022/03/08 11:26:17;;;;;;;7.37;4.93;;;11.30;1.00;;;;;;5089330;28;20442;-56
2022/03/08 11:28:47;;;;;;;6.73;3.73;;;11.50;1.00;;;;;;5090178;28;21113;-57
2022/03/08 11:31:18;;;;;;;3.10;2.80;;;11.60;1.00;;;;;;5090021;28;20480;-56
2022/03/08 11:33:55;;;;;;;4.10;3.10;;;11.50;1.00;;;;;;5094617;28;20538;-57
2022/03/08 11:36:32;;;;;;;2.90;2.37;;;11.50;1.00;;;;;;5090831;28;20772;-57
2022/03/08 11:39:11;;;;;;;2.87;1.30;;;11.60;1.00;;;;;;5085507;28;20444;-57
2022/03/08 11:41:37;;;;;;;3.83;0.97;;;11.50;1.00;;;;;;5090313;28;20436;-59
2022/03/08 11:44:03;;;;;;;2.93;0.87;;;11.60;1.00;;;;;;5088884;28;20476;-58
2022/03/08 11:46:29;;;;;;;1.13;1.00;;;11.50;1.00;;;;;;5089375;28;20976;-58
2022/03/08 11:49:00;;;;;;;2.10;1.20;;;11.50;1.00;;;;;;5089707;28;20447;-59
2022/03/08 11:51:28;;;;;;;2.20;0.90;;;11.60;1.00;;;;;;5089598;28;20174;-58
2022/03/08 11:54:08;;;;;;;0.70;0.67;;;11.50;1.00;;;;;;5089240;28;20439;-57
2022/03/08 11:56:45;;;;;;;2.17;1.13;;;11.40;1.00;;;;;;5088760;28;20498;-58
2022/03/08 11:59:11;;;;;;;1.63;0.97;;;;;;;;;;5089888;28;20479;-57
2022/03/08 12:01:38;;;;;;;1.27;0.70;;;10.60;1.00;;;;;;5089538;28;20448;-60
2022/03/08 12:04:12;;;;;;;1.77;1.20;;;10.70;1.00;;;;;;5090325;28;20967;-58
2022/03/08 12:06:39;;;;;;;1.70;0.90;;;10.60;1.00;;;;;;5089594;28;20479;-58
2022/03/08 12:09:10;;;;;;;1.23;0.80;;;10.60;1.00;;;;;;5089260;28;20433;-58
2022/03/08 12:11:41;;;;;;;2.63;1.30;;;10.90;1.00;;;;;;5088767;28;20540;-58
2022/03/08 12:14:19;;;;;;;2.20;1.13;;;11.10;1.00;;;;;;5086952;28;20429;-59
2022/03/08 12:16:50;;;;;;;1.40;0.93;;;11.20;1.00;;;;;;5088751;28;20433;-59
2022/03/08 12:19:34;;;;;;;1.47;0.90;;;11.20;1.00;;;;;;5089474;28;20463;-57
2022/03/08 12:22:01;;;;;;;1.00;0.90;;;11.30;1.00;;;;;;5089361;28;21026;-59
2022/03/08 12:24:32;;;;;;;0.70;0.70;;;11.40;1.00;;;;;;5089516;28;20539;-57
2022/03/08 12:27:01;;;;;;;3.30;1.37;;;11.60;1.00;;;;;;5089526;28;20969;-58
2022/03/08 12:29:46;;;;;;;2.90;1.07;;;11.60;1.00;;;;;;5089259;28;20444;-58
2022/03/08 12:32:22;;;;;;;1.87;1.10;;;;;;;;;;5082420;28;20476;-59
2022/03/08 12:34:50;;;;;;;1.00;0.90;;;11.60;1.00;;;;;;5107822;28;20911;-59
2022/03/08 12:37:30;;;;;;;2.63;1.20;;;11.60;1.00;;;;;;5104833;28;20440;-59
2022/03/08 12:40:00;;;;;;;4.53;1.40;;;11.70;1.00;;;;;;5093595;28;20941;-59
2022/03/08 12:42:31;;;;;;;2.70;1.33;;;11.90;1.00;;;;;;5093679;28;20476;-57
2022/03/08 12:45:13;;;;;;;1.67;1.00;;;12.00;1.00;;;;;;5092394;28;20449;-59
2022/03/08 12:47:43;;;;;;;1.20;1.10;;;12.10;1.00;;;;;;5092370;28;20433;-57
2022/03/08 12:50:10;;;;;;;1.40;1.00;;;12.20;1.00;;;;;;5091922;28;20934;-57
2022/03/08 12:52:44;;;;;;;0.80;0.70;;;12.40;1.00;;;;;;5092280;28;20821;-58
2022/03/08 12:55:13;;;;;;;0.93;0.70;;;12.30;1.00;;;;;;5094201;28;20414;-57
2022/03/08 12:57:54;;;;;;;1.00;0.60;;;11.90;1.00;;;;;;5100582;28;20937;-57
2022/03/08 13:00:36;;;;;;;1.53;1.00;;;11.60;1.00;;;;;;5092999;28;20948;-60
2022/03/08 13:03:04;;;;;;;0.83;0.70;;;11.60;1.00;;;;;;5092578;28;20440;-57
2022/03/08 13:05:33;;;;;;;0.80;0.80;;;11.60;1.00;;;;;;5091573;28;20795;-57
2022/03/08 13:07:59;;;;;;;0.80;0.53;;;11.70;1.00;;;;;;5101669;28;20832;-57
2022/03/08 13:10:27;;;;;;;2.70;1.00;;;11.90;1.00;;;;;;5113377;28;20419;-60